KFFL/FFL METAR and TAF weather

Enter ICAO airport designator
Station Type Date Time Source
KFFL METAR 2020/11/25 23:15 UTC NOAA

KFFL 252315Z AUTO 32011KT 9SM OVC006 05/05 A2985 RMK A01


Station Type Date Time Source
KFFL Decoded METAR 2020/11/25 23:15 UTC NOAA

Fair Field, IA, United States (KFFL) 41-03N 091-59W
Nov 25, 2020 - 06:15 PM EST / 2020.11.25 2315 UTC
Wind: from the NW (320 degrees) at 13 MPH (11 KT):0
Visibility: 9 mile(s):0
Sky conditions: overcast
Temperature: 41 F (5 C)
Dew Point: 41 F (5 C)
Relative Humidity: 100%
Pressure (altimeter): 29.85 in. Hg (1010 hPa)
ob: KFFL 252315Z AUTO 32011KT 9SM OVC006 05/05 A2985 RMK A01
cycle: 23

Station Type Date Time Source
KFFL TAF UTC NOAA

Error!

Example: see airport list